sensor_id;sensor_type;location;lat;lon;timestamp;temperature;humidity
10722;DHT22;5412;59.450;18.124;2022-10-13T00:01:22;9.20;99.90
10722;DHT22;5412;59.450;18.124;2022-10-13T00:03:48;9.20;99.90
10722;DHT22;5412;59.450;18.124;2022-10-13T00:06:16;9.10;99.90
10722;DHT22;5412;59.450;18.124;2022-10-13T00:08:43;9.20;99.90
10722;DHT22;5412;59.450;18.124;2022-10-13T00:11:10;9.20;99.90
10722;DHT22;5412;59.450;18.124;2022-10-13T00:13:37;9.20;99.90
10722;DHT22;5412;59.450;18.124;2022-10-13T00:16:03;9.20;99.90
10722;DHT22;5412;59.450;18.124;2022-10-13T00:18:29;9.20;99.90
10722;DHT22;5412;59.450;18.124;2022-10-13T00:20:54;9.20;99.90
10722;DHT22;5412;59.450;18.124;2022-10-13T00:23:20;9.20;99.90
10722;DHT22;5412;59.450;18.124;2022-10-13T00:25:47;9.20;99.90
10722;DHT22;5412;59.450;18.124;2022-10-13T00:28:16;9.30;99.90
10722;DHT22;5412;59.450;18.124;2022-10-13T00:30:42;9.30;99.90
10722;DHT22;5412;59.450;18.124;2022-10-13T00:33:09;9.20;99.90
10722;DHT22;5412;59.450;18.124;2022-10-13T00:35:43;9.30;99.90
10722;DHT22;5412;59.450;18.124;2022-10-13T00:38:10;9.20;99.90
10722;DHT22;5412;59.450;18.124;2022-10-13T00:43:21;9.20;99.90
10722;DHT22;5412;59.450;18.124;2022-10-13T00:45:47;9.20;99.90
10722;DHT22;5412;59.450;18.124;2022-10-13T00:48:19;9.20;99.90
10722;DHT22;5412;59.450;18.124;2022-10-13T00:50:46;9.20;99.90
10722;DHT22;5412;59.450;18.124;2022-10-13T00:53:14;9.20;99.90
10722;DHT22;5412;59.450;18.124;2022-10-13T00:55:42;9.20;99.90
10722;DHT22;5412;59.450;18.124;2022-10-13T00:58:11;9.20;99.90
10722;DHT22;5412;59.450;18.124;2022-10-13T01:00:43;9.20;99.90
10722;DHT22;5412;59.450;18.124;2022-10-13T01:03:10;9.20;99.90
10722;DHT22;5412;59.450;18.124;2022-10-13T01:05:36;9.20;99.90
10722;DHT22;5412;59.450;18.124;2022-10-13T01:08:03;9.10;99.90
10722;DHT22;5412;59.450;18.124;2022-10-13T01:18:45;9.10;99.90
10722;DHT22;5412;59.450;18.124;2022-10-13T01:21:16;9.10;99.90
10722;DHT22;5412;59.450;18.124;2022-10-13T01:23:47;9.00;99.90
10722;DHT22;5412;59.450;18.124;2022-10-13T01:26:32;9.10;99.90
10722;DHT22;5412;59.450;18.124;2022-10-13T01:30:00;9.00;99.90
10722;DHT22;5412;59.450;18.124;2022-10-13T01:32:14;9.00;99.90
10722;DHT22;5412;59.450;18.124;2022-10-13T01:37:31;9.00;99.90
10722;DHT22;5412;59.450;18.124;2022-10-13T01:40:23;9.00;99.90
10722;DHT22;5412;59.450;18.124;2022-10-13T01:42:57;8.90;99.90
10722;DHT22;5412;59.450;18.124;2022-10-13T01:45:36;8.90;99.90
10722;DHT22;5412;59.450;18.124;2022-10-13T01:48:05;8.90;99.90
10722;DHT22;5412;59.450;18.124;2022-10-13T01:50:33;8.90;99.90
10722;DHT22;5412;59.450;18.124;2022-10-13T01:53:03;8.90;99.90
10722;DHT22;5412;59.450;18.124;2022-10-13T01:55:29;8.90;99.90
10722;DHT22;5412;59.450;18.124;2022-10-13T01:57:56;8.90;99.90
10722;DHT22;5412;59.450;18.124;2022-10-13T02:00:22;9.00;99.90
10722;DHT22;5412;59.450;18.124;2022-10-13T02:10:37;8.90;99.90
10722;DHT22;5412;59.450;18.124;2022-10-13T02:13:06;9.00;99.90
10722;DHT22;5412;59.450;18.124;2022-10-13T02:15:40;9.00;99.90
10722;DHT22;5412;59.450;18.124;2022-10-13T02:18:10;9.10;99.90
10722;DHT22;5412;59.450;18.124;2022-10-13T02:20:39;9.00;99.90
10722;DHT22;5412;59.450;18.124;2022-10-13T02:23:12;8.90;99.90
10722;DHT22;5412;59.450;18.124;2022-10-13T02:25:40;9.00;99.90
10722;DHT22;5412;59.450;18.124;2022-10-13T02:28:07;8.90;99.90
10722;DHT22;5412;59.450;18.124;2022-10-13T02:30:34;8.90;99.90
10722;DHT22;5412;59.450;18.124;2022-10-13T02:33:01;8.80;99.90
10722;DHT22;5412;59.450;18.124;2022-10-13T02:35:27;8.90;99.90
10722;DHT22;5412;59.450;18.124;2022-10-13T02:37:54;8.80;99.90
10722;DHT22;5412;59.450;18.124;2022-10-13T02:40:20;8.90;99.90
10722;DHT22;5412;59.450;18.124;2022-10-13T02:42:45;8.80;99.90
10722;DHT22;5412;59.450;18.124;2022-10-13T02:45:11;8.90;99.90
10722;DHT22;5412;59.450;18.124;2022-10-13T02:47:37;8.90;99.90
10722;DHT22;5412;59.450;18.124;2022-10-13T02:50:03;8.90;99.90
10722;DHT22;5412;59.450;18.124;2022-10-13T02:52:29;8.80;99.90
10722;DHT22;5412;59.450;18.124;2022-10-13T02:54:55;8.80;99.90
10722;DHT22;5412;59.450;18.124;2022-10-13T02:57:21;8.90;99.90
10722;DHT22;5412;59.450;18.124;2022-10-13T02:59:47;8.80;99.90
10722;DHT22;5412;59.450;18.124;2022-10-13T03:02:12;8.80;99.90
10722;DHT22;5412;59.450;18.124;2022-10-13T03:04:39;8.80;99.90
10722;DHT22;5412;59.450;18.124;2022-10-13T03:07:04;8.90;99.90
10722;DHT22;5412;59.450;18.124;2022-10-13T03:09:30;8.90;99.90
10722;DHT22;5412;59.450;18.124;2022-10-13T03:11:56;8.90;99.90
10722;DHT22;5412;59.450;18.124;2022-10-13T03:14:22;8.90;99.90
10722;DHT22;5412;59.450;18.124;2022-10-13T03:16:48;9.00;99.90
10722;DHT22;5412;59.450;18.124;2022-10-13T03:19:14;9.00;99.90
10722;DHT22;5412;59.450;18.124;2022-10-13T03:21:40;8.90;99.90
10722;DHT22;5412;59.450;18.124;2022-10-13T03:24:05;8.90;99.90
10722;DHT22;5412;59.450;18.124;2022-10-13T03:26:32;9.00;99.90
10722;DHT22;5412;59.450;18.124;2022-10-13T03:28:58;9.40;99.90
10722;DHT22;5412;59.450;18.124;2022-10-13T03:31:24;9.00;99.90
10722;DHT22;5412;59.450;18.124;2022-10-13T03:33:50;9.00;99.90
10722;DHT22;5412;59.450;18.124;2022-10-13T03:36:16;9.00;99.90
10722;DHT22;5412;59.450;18.124;2022-10-13T03:38:42;9.00;99.90
10722;DHT22;5412;59.450;18.124;2022-10-13T03:41:11;9.00;99.90
10722;DHT22;5412;59.450;18.124;2022-10-13T03:43:37;9.00;99.90
10722;DHT22;5412;59.450;18.124;2022-10-13T03:46:04;9.10;99.90
10722;DHT22;5412;59.450;18.124;2022-10-13T03:48:31;9.10;99.90
10722;DHT22;5412;59.450;18.124;2022-10-13T03:50:57;9.10;99.90
10722;DHT22;5412;59.450;18.124;2022-10-13T03:53:24;9.20;99.90
10722;DHT22;5412;59.450;18.124;2022-10-13T03:55:52;9.20;99.90
10722;DHT22;5412;59.450;18.124;2022-10-13T03:58:18;9.20;99.90
10722;DHT22;5412;59.450;18.124;2022-10-13T04:00:44;9.20;99.90
10722;DHT22;5412;59.450;18.124;2022-10-13T04:03:10;9.30;99.90
10722;DHT22;5412;59.450;18.124;2022-10-13T04:05:36;9.30;99.90
10722;DHT22;5412;59.450;18.124;2022-10-13T04:08:03;9.30;99.90
10722;DHT22;5412;59.450;18.124;2022-10-13T04:10:29;9.30;99.90
10722;DHT22;5412;59.450;18.124;2022-10-13T04:12:55;9.20;99.90
10722;DHT22;5412;59.450;18.124;2022-10-13T04:15:21;9.30;99.90
10722;DHT22;5412;59.450;18.124;2022-10-13T04:17:46;9.30;99.90
10722;DHT22;5412;59.450;18.124;2022-10-13T04:20:12;9.30;99.90
10722;DHT22;5412;59.450;18.124;2022-10-13T04:22:38;9.20;99.90
10722;DHT22;5412;59.450;18.124;2022-10-13T04:25:04;9.20;99.90
10722;DHT22;5412;59.450;18.124;2022-10-13T04:27:30;9.20;99.90
10722;DHT22;5412;59.450;18.124;2022-10-13T04:29:57;9.20;99.90
10722;DHT22;5412;59.450;18.124;2022-10-13T04:32:23;9.20;99.90
10722;DHT22;5412;59.450;18.124;2022-10-13T04:34:48;9.20;99.90
10722;DHT22;5412;59.450;18.124;2022-10-13T04:37:14;9.20;99.90
10722;DHT22;5412;59.450;18.124;2022-10-13T04:39:40;9.20;99.90
10722;DHT22;5412;59.450;18.124;2022-10-13T04:42:06;9.20;99.90
10722;DHT22;5412;59.450;18.124;2022-10-13T04:44:31;9.20;99.90
10722;DHT22;5412;59.450;18.124;2022-10-13T04:46:57;9.20;99.90
10722;DHT22;5412;59.450;18.124;2022-10-13T04:49:24;9.20;99.90
10722;DHT22;5412;59.450;18.124;2022-10-13T04:51:50;9.20;99.90
10722;DHT22;5412;59.450;18.124;2022-10-13T04:54:16;9.20;99.90
10722;DHT22;5412;59.450;18.124;2022-10-13T04:56:44;9.30;99.90
10722;DHT22;5412;59.450;18.124;2022-10-13T04:59:10;9.20;99.90
10722;DHT22;5412;59.450;18.124;2022-10-13T05:01:35;9.30;99.90
10722;DHT22;5412;59.450;18.124;2022-10-13T05:04:02;9.30;99.90
10722;DHT22;5412;59.450;18.124;2022-10-13T05:06:31;9.30;99.90
10722;DHT22;5412;59.450;18.124;2022-10-13T05:08:58;9.30;99.90
10722;DHT22;5412;59.450;18.124;2022-10-13T05:11:25;9.40;99.90
10722;DHT22;5412;59.450;18.124;2022-10-13T05:13:51;9.60;99.90
10722;DHT22;5412;59.450;18.124;2022-10-13T05:16:18;9.50;99.90
10722;DHT22;5412;59.450;18.124;2022-10-13T05:18:45;9.50;99.90
10722;DHT22;5412;59.450;18.124;2022-10-13T05:21:17;9.60;99.90
10722;DHT22;5412;59.450;18.124;2022-10-13T05:23:43;9.60;99.90
10722;DHT22;5412;59.450;18.124;2022-10-13T05:26:12;9.60;99.90
10722;DHT22;5412;59.450;18.124;2022-10-13T05:28:38;9.70;99.90
10722;DHT22;5412;59.450;18.124;2022-10-13T05:33:34;9.70;99.90
10722;DHT22;5412;59.450;18.124;2022-10-13T05:36:11;9.80;99.90
10722;DHT22;5412;59.450;18.124;2022-10-13T05:38:37;9.90;99.90
10722;DHT22;5412;59.450;18.124;2022-10-13T05:41:09;9.80;99.90
10722;DHT22;5412;59.450;18.124;2022-10-13T05:43:35;9.80;99.90
10722;DHT22;5412;59.450;18.124;2022-10-13T05:46:01;9.90;99.90
10722;DHT22;5412;59.450;18.124;2022-10-13T05:48:28;9.90;99.90
10722;DHT22;5412;59.450;18.124;2022-10-13T05:50:55;9.80;99.90
10722;DHT22;5412;59.450;18.124;2022-10-13T05:53:23;9.90;99.90
10722;DHT22;5412;59.450;18.124;2022-10-13T05:55:50;9.80;99.90
10722;DHT22;5412;59.450;18.124;2022-10-13T05:58:17;9.90;99.90
10722;DHT22;5412;59.450;18.124;2022-10-13T06:00:43;9.80;99.90
10722;DHT22;5412;59.450;18.124;2022-10-13T06:03:15;9.80;99.90
10722;DHT22;5412;59.450;18.124;2022-10-13T06:05:42;9.80;99.90
10722;DHT22;5412;59.450;18.124;2022-10-13T06:08:15;9.80;99.90
10722;DHT22;5412;59.450;18.124;2022-10-13T06:10:41;9.90;99.90
10722;DHT22;5412;59.450;18.124;2022-10-13T06:13:08;9.90;99.90
10722;DHT22;5412;59.450;18.124;2022-10-13T06:15:34;9.90;99.90
10722;DHT22;5412;59.450;18.124;2022-10-13T06:18:00;9.90;99.90
10722;DHT22;5412;59.450;18.124;2022-10-13T06:20:26;9.90;99.90
10722;DHT22;5412;59.450;18.124;2022-10-13T06:22:55;9.90;99.90
10722;DHT22;5412;59.450;18.124;2022-10-13T06:25:21;10.00;99.90
10722;DHT22;5412;59.450;18.124;2022-10-13T06:27:47;10.00;99.90
10722;DHT22;5412;59.450;18.124;2022-10-13T06:30:12;10.00;99.90
10722;DHT22;5412;59.450;18.124;2022-10-13T06:32:38;10.10;99.90
10722;DHT22;5412;59.450;18.124;2022-10-13T06:35:05;10.10;99.90
10722;DHT22;5412;59.450;18.124;2022-10-13T06:37:30;10.20;99.90
10722;DHT22;5412;59.450;18.124;2022-10-13T06:39:56;10.20;99.90
10722;DHT22;5412;59.450;18.124;2022-10-13T06:42:22;10.20;99.90
10722;DHT22;5412;59.450;18.124;2022-10-13T06:44:48;10.20;99.90
10722;DHT22;5412;59.450;18.124;2022-10-13T06:47:13;10.20;99.90
10722;DHT22;5412;59.450;18.124;2022-10-13T06:49:39;10.20;99.90
10722;DHT22;5412;59.450;18.124;2022-10-13T06:52:05;10.30;99.90
10722;DHT22;5412;59.450;18.124;2022-10-13T06:54:30;10.30;99.90
10722;DHT22;5412;59.450;18.124;2022-10-13T06:56:56;10.30;99.90
10722;DHT22;5412;59.450;18.124;2022-10-13T06:59:22;10.40;99.90
10722;DHT22;5412;59.450;18.124;2022-10-13T07:01:48;10.30;99.90
10722;DHT22;5412;59.450;18.124;2022-10-13T07:04:15;10.30;99.90
10722;DHT22;5412;59.450;18.124;2022-10-13T07:06:41;10.40;99.90
10722;DHT22;5412;59.450;18.124;2022-10-13T07:09:07;10.50;99.90
10722;DHT22;5412;59.450;18.124;2022-10-13T07:11:34;10.60;99.90
10722;DHT22;5412;59.450;18.124;2022-10-13T07:14:00;10.70;99.90
10722;DHT22;5412;59.450;18.124;2022-10-13T07:16:26;10.80;99.90
10722;DHT22;5412;59.450;18.124;2022-10-13T07:18:51;10.80;99.90
10722;DHT22;5412;59.450;18.124;2022-10-13T07:21:17;10.80;99.90
10722;DHT22;5412;59.450;18.124;2022-10-13T07:23:43;10.90;99.90
10722;DHT22;5412;59.450;18.124;2022-10-13T07:26:12;11.00;99.90
10722;DHT22;5412;59.450;18.124;2022-10-13T07:28:38;11.00;99.90
10722;DHT22;5412;59.450;18.124;2022-10-13T07:31:09;11.10;99.90
10722;DHT22;5412;59.450;18.124;2022-10-13T07:33:36;11.20;99.90
10722;DHT22;5412;59.450;18.124;2022-10-13T07:36:03;11.20;99.90
10722;DHT22;5412;59.450;18.124;2022-10-13T07:38:29;11.30;99.90
10722;DHT22;5412;59.450;18.124;2022-10-13T07:40:55;11.40;99.90
10722;DHT22;5412;59.450;18.124;2022-10-13T07:43:20;11.40;99.90
10722;DHT22;5412;59.450;18.124;2022-10-13T07:45:46;11.40;99.90
10722;DHT22;5412;59.450;18.124;2022-10-13T07:48:12;11.40;99.90
10722;DHT22;5412;59.450;18.124;2022-10-13T07:50:37;11.40;99.90
10722;DHT22;5412;59.450;18.124;2022-10-13T07:53:03;11.50;99.90
10722;DHT22;5412;59.450;18.124;2022-10-13T07:55:29;11.50;99.90
10722;DHT22;5412;59.450;18.124;2022-10-13T07:57:54;11.50;99.90
10722;DHT22;5412;59.450;18.124;2022-10-13T08:00:20;11.60;99.90
10722;DHT22;5412;59.450;18.124;2022-10-13T08:02:49;11.70;99.90
10722;DHT22;5412;59.450;18.124;2022-10-13T08:05:15;11.80;99.90
10722;DHT22;5412;59.450;18.124;2022-10-13T08:07:41;11.80;99.90
10722;DHT22;5412;59.450;18.124;2022-10-13T08:10:07;12.00;99.90
10722;DHT22;5412;59.450;18.124;2022-10-13T08:12:36;12.10;99.90
10722;DHT22;5412;59.450;18.124;2022-10-13T08:15:03;12.20;99.90
10722;DHT22;5412;59.450;18.124;2022-10-13T08:17:28;12.20;99.90
10722;DHT22;5412;59.450;18.124;2022-10-13T08:19:54;12.20;99.90
10722;DHT22;5412;59.450;18.124;2022-10-13T08:22:20;12.20;99.90
10722;DHT22;5412;59.450;18.124;2022-10-13T08:24:46;12.20;99.90
10722;DHT22;5412;59.450;18.124;2022-10-13T08:27:17;12.20;99.90
10722;DHT22;5412;59.450;18.124;2022-10-13T08:29:44;12.30;99.90
10722;DHT22;5412;59.450;18.124;2022-10-13T08:32:11;12.30;99.90
10722;DHT22;5412;59.450;18.124;2022-10-13T08:34:37;12.30;99.90
10722;DHT22;5412;59.450;18.124;2022-10-13T08:37:03;12.40;99.90
10722;DHT22;5412;59.450;18.124;2022-10-13T08:39:29;12.50;99.90
10722;DHT22;5412;59.450;18.124;2022-10-13T08:41:55;12.70;99.90
10722;DHT22;5412;59.450;18.124;2022-10-13T08:44:24;12.80;99.90
10722;DHT22;5412;59.450;18.124;2022-10-13T08:49:52;13.20;99.90
10722;DHT22;5412;59.450;18.124;2022-10-13T08:52:22;13.20;99.90
10722;DHT22;5412;59.450;18.124;2022-10-13T08:54:48;13.40;99.90
10722;DHT22;5412;59.450;18.124;2022-10-13T08:57:14;13.40;99.90
10722;DHT22;5412;59.450;18.124;2022-10-13T08:59:40;13.40;99.90
10722;DHT22;5412;59.450;18.124;2022-10-13T09:02:14;13.50;99.90
10722;DHT22;5412;59.450;18.124;2022-10-13T09:04:48;13.60;99.90
10722;DHT22;5412;59.450;18.124;2022-10-13T09:07:19;13.50;99.90
10722;DHT22;5412;59.450;18.124;2022-10-13T09:09:49;13.50;99.90
10722;DHT22;5412;59.450;18.124;2022-10-13T09:12:16;13.50;99.90
10722;DHT22;5412;59.450;18.124;2022-10-13T09:14:57;13.40;99.90
10722;DHT22;5412;59.450;18.124;2022-10-13T09:17:24;13.30;99.90
10722;DHT22;5412;59.450;18.124;2022-10-13T09:22:43;13.20;99.90
10722;DHT22;5412;59.450;18.124;2022-10-13T09:27:50;12.90;99.90
10722;DHT22;5412;59.450;18.124;2022-10-13T09:33:21;13.20;99.90
10722;DHT22;5412;59.450;18.124;2022-10-13T09:36:13;13.40;99.90
10722;DHT22;5412;59.450;18.124;2022-10-13T09:39:03;13.40;99.90
10722;DHT22;5412;59.450;18.124;2022-10-13T09:41:29;13.60;99.90
10722;DHT22;5412;59.450;18.124;2022-10-13T09:43:57;13.70;99.90
10722;DHT22;5412;59.450;18.124;2022-10-13T09:46:53;13.80;99.90
10722;DHT22;5412;59.450;18.124;2022-10-13T09:49:33;13.80;99.90
10722;DHT22;5412;59.450;18.124;2022-10-13T09:52:15;13.70;99.90
10722;DHT22;5412;59.450;18.124;2022-10-13T09:54:48;13.70;99.90
10722;DHT22;5412;59.450;18.124;2022-10-13T09:57:44;13.70;99.90
10722;DHT22;5412;59.450;18.124;2022-10-13T10:00:21;13.70;99.90
10722;DHT22;5412;59.450;18.124;2022-10-13T10:03:12;13.80;99.90
10722;DHT22;5412;59.450;18.124;2022-10-13T10:06:00;13.70;99.90
10722;DHT22;5412;59.450;18.124;2022-10-13T10:11:17;13.80;99.90
10722;DHT22;5412;59.450;18.124;2022-10-13T10:13:43;13.80;99.90
10722;DHT22;5412;59.450;18.124;2022-10-13T10:16:19;13.70;99.90
10722;DHT22;5412;59.450;18.124;2022-10-13T10:22:01;13.70;99.90
10722;DHT22;5412;59.450;18.124;2022-10-13T10:27:20;13.60;99.90
10722;DHT22;5412;59.450;18.124;2022-10-13T10:29:56;13.60;99.90
10722;DHT22;5412;59.450;18.124;2022-10-13T10:35:54;13.50;99.90
10722;DHT22;5412;59.450;18.124;2022-10-13T10:38:34;13.60;99.90
10722;DHT22;5412;59.450;18.124;2022-10-13T10:44:08;13.80;99.90
10722;DHT22;5412;59.450;18.124;2022-10-13T10:46:47;13.80;99.90
10722;DHT22;5412;59.450;18.124;2022-10-13T10:51:42;13.90;99.90
10722;DHT22;5412;59.450;18.124;2022-10-13T11:02:39;14.20;99.90
10722;DHT22;5412;59.450;18.124;2022-10-13T11:05:07;14.20;99.90
10722;DHT22;5412;59.450;18.124;2022-10-13T11:09:59;14.00;99.90
10722;DHT22;5412;59.450;18.124;2022-10-13T11:15:13;14.20;99.90
10722;DHT22;5412;59.450;18.124;2022-10-13T11:17:40;14.10;99.90
10722;DHT22;5412;59.450;18.124;2022-10-13T11:30:50;14.30;99.90
10722;DHT22;5412;59.450;18.124;2022-10-13T11:44:55;14.10;99.90
10722;DHT22;5412;59.450;18.124;2022-10-13T11:50:28;14.10;99.90
10722;DHT22;5412;59.450;18.124;2022-10-13T11:53:16;14.10;99.90
10722;DHT22;5412;59.450;18.124;2022-10-13T11:55:55;14.00;99.90
10722;DHT22;5412;59.450;18.124;2022-10-13T11:58:24;14.10;99.90
10722;DHT22;5412;59.450;18.124;2022-10-13T12:06:04;14.40;99.90
10722;DHT22;5412;59.450;18.124;2022-10-13T12:08:32;14.30;99.90
10722;DHT22;5412;59.450;18.124;2022-10-13T12:10:59;14.20;99.90
10722;DHT22;5412;59.450;18.124;2022-10-13T12:13:30;14.30;99.90
10722;DHT22;5412;59.450;18.124;2022-10-13T12:18:42;14.30;99.90
10722;DHT22;5412;59.450;18.124;2022-10-13T12:23:38;14.10;99.90
10722;DHT22;5412;59.450;18.124;2022-10-13T12:26:04;14.10;99.90
10722;DHT22;5412;59.450;18.124;2022-10-13T12:28:47;14.00;99.90
10722;DHT22;5412;59.450;18.124;2022-10-13T12:31:27;13.90;99.90
10722;DHT22;5412;59.450;18.124;2022-10-13T12:33:59;13.90;99.90
10722;DHT22;5412;59.450;18.124;2022-10-13T12:36:34;14.10;99.90
10722;DHT22;5412;59.450;18.124;2022-10-13T12:39:06;14.10;99.90
10722;DHT22;5412;59.450;18.124;2022-10-13T12:41:37;14.10;99.90
10722;DHT22;5412;59.450;18.124;2022-10-13T12:44:07;14.00;99.90
10722;DHT22;5412;59.450;18.124;2022-10-13T12:46:42;13.80;99.90
10722;DHT22;5412;59.450;18.124;2022-10-13T12:51:37;13.80;99.90
10722;DHT22;5412;59.450;18.124;2022-10-13T12:54:30;13.80;99.90
10722;DHT22;5412;59.450;18.124;2022-10-13T12:57:03;13.80;99.90
10722;DHT22;5412;59.450;18.124;2022-10-13T12:59:30;13.80;99.90
10722;DHT22;5412;59.450;18.124;2022-10-13T13:02:01;13.90;99.90
10722;DHT22;5412;59.450;18.124;2022-10-13T13:04:45;13.80;99.90
10722;DHT22;5412;59.450;18.124;2022-10-13T13:07:34;13.80;99.90
10722;DHT22;5412;59.450;18.124;2022-10-13T13:10:21;13.80;99.90
10722;DHT22;5412;59.450;18.124;2022-10-13T13:12:48;13.80;99.90
10722;DHT22;5412;59.450;18.124;2022-10-13T13:15:30;13.80;99.90
10722;DHT22;5412;59.450;18.124;2022-10-13T13:20:52;13.80;99.90
10722;DHT22;5412;59.450;18.124;2022-10-13T13:23:19;13.70;99.90
10722;DHT22;5412;59.450;18.124;2022-10-13T13:28:31;13.60;99.90
10722;DHT22;5412;59.450;18.124;2022-10-13T13:30:57;13.50;99.90
10722;DHT22;5412;59.450;18.124;2022-10-13T13:33:23;13.50;99.90
10722;DHT22;5412;59.450;18.124;2022-10-13T13:35:50;13.50;99.90
10722;DHT22;5412;59.450;18.124;2022-10-13T13:38:16;13.50;99.90
10722;DHT22;5412;59.450;18.124;2022-10-13T13:40:41;13.40;99.90
10722;DHT22;5412;59.450;18.124;2022-10-13T13:43:07;13.50;99.90
10722;DHT22;5412;59.450;18.124;2022-10-13T13:45:34;13.50;99.90
10722;DHT22;5412;59.450;18.124;2022-10-13T13:48:00;13.50;99.90
10722;DHT22;5412;59.450;18.124;2022-10-13T13:50:31;13.50;99.90
10722;DHT22;5412;59.450;18.124;2022-10-13T13:52:58;13.40;99.90
10722;DHT22;5412;59.450;18.124;2022-10-13T13:55:24;13.40;99.90
10722;DHT22;5412;59.450;18.124;2022-10-13T13:57:50;13.40;99.90
10722;DHT22;5412;59.450;18.124;2022-10-13T14:00:17;13.40;99.90
10722;DHT22;5412;59.450;18.124;2022-10-13T14:02:43;13.30;99.90
10722;DHT22;5412;59.450;18.124;2022-10-13T14:05:09;13.30;99.90
10722;DHT22;5412;59.450;18.124;2022-10-13T14:07:35;13.30;99.90
10722;DHT22;5412;59.450;18.124;2022-10-13T14:10:01;13.30;99.90
10722;DHT22;5412;59.450;18.124;2022-10-13T14:12:30;13.30;99.90
10722;DHT22;5412;59.450;18.124;2022-10-13T14:14:57;13.30;99.90
10722;DHT22;5412;59.450;18.124;2022-10-13T14:17:23;13.30;99.90
10722;DHT22;5412;59.450;18.124;2022-10-13T14:19:49;13.10;99.90
10722;DHT22;5412;59.450;18.124;2022-10-13T14:22:15;13.10;99.90
10722;DHT22;5412;59.450;18.124;2022-10-13T14:24:40;13.10;99.90
10722;DHT22;5412;59.450;18.124;2022-10-13T14:27:06;13.20;99.90
10722;DHT22;5412;59.450;18.124;2022-10-13T14:29:34;13.30;99.90
10722;DHT22;5412;59.450;18.124;2022-10-13T14:32:01;13.20;99.90
10722;DHT22;5412;59.450;18.124;2022-10-13T14:34:28;13.20;99.90
10722;DHT22;5412;59.450;18.124;2022-10-13T14:36:54;13.20;99.90
10722;DHT22;5412;59.450;18.124;2022-10-13T14:39:19;13.10;99.90
10722;DHT22;5412;59.450;18.124;2022-10-13T14:41:45;13.20;99.90
10722;DHT22;5412;59.450;18.124;2022-10-13T14:44:12;13.20;99.90
10722;DHT22;5412;59.450;18.124;2022-10-13T14:46:39;13.10;99.90
10722;DHT22;5412;59.450;18.124;2022-10-13T14:49:05;13.10;99.90
10722;DHT22;5412;59.450;18.124;2022-10-13T14:51:31;13.20;99.90
10722;DHT22;5412;59.450;18.124;2022-10-13T14:53:57;13.10;99.90
10722;DHT22;5412;59.450;18.124;2022-10-13T14:56:25;13.10;99.90
10722;DHT22;5412;59.450;18.124;2022-10-13T14:58:53;13.20;99.90
10722;DHT22;5412;59.450;18.124;2022-10-13T15:01:20;13.10;99.90
10722;DHT22;5412;59.450;18.124;2022-10-13T15:03:47;13.10;99.90
10722;DHT22;5412;59.450;18.124;2022-10-13T15:06:15;13.10;99.90
10722;DHT22;5412;59.450;18.124;2022-10-13T15:08:42;13.10;99.90
10722;DHT22;5412;59.450;18.124;2022-10-13T15:11:08;13.10;99.90
10722;DHT22;5412;59.450;18.124;2022-10-13T15:13:34;13.00;99.90
10722;DHT22;5412;59.450;18.124;2022-10-13T15:16:00;13.00;99.90
10722;DHT22;5412;59.450;18.124;2022-10-13T15:18:34;13.00;99.90
10722;DHT22;5412;59.450;18.124;2022-10-13T15:21:03;13.00;99.90
10722;DHT22;5412;59.450;18.124;2022-10-13T15:23:28;13.00;99.90
10722;DHT22;5412;59.450;18.124;2022-10-13T15:25:58;12.90;99.90
10722;DHT22;5412;59.450;18.124;2022-10-13T15:28:27;12.90;99.90
10722;DHT22;5412;59.450;18.124;2022-10-13T15:30:54;12.80;99.90
10722;DHT22;5412;59.450;18.124;2022-10-13T15:33:20;12.90;99.90
10722;DHT22;5412;59.450;18.124;2022-10-13T15:35:50;12.90;99.90
10722;DHT22;5412;59.450;18.124;2022-10-13T15:38:17;12.90;99.90
10722;DHT22;5412;59.450;18.124;2022-10-13T15:40:43;12.90;99.90
10722;DHT22;5412;59.450;18.124;2022-10-13T15:43:09;12.90;99.90
10722;DHT22;5412;59.450;18.124;2022-10-13T15:45:35;12.80;99.90
10722;DHT22;5412;59.450;18.124;2022-10-13T15:48:02;12.80;99.90
10722;DHT22;5412;59.450;18.124;2022-10-13T15:50:28;12.80;99.90
10722;DHT22;5412;59.450;18.124;2022-10-13T15:52:53;12.80;99.90
10722;DHT22;5412;59.450;18.124;2022-10-13T15:55:19;12.80;99.90
10722;DHT22;5412;59.450;18.124;2022-10-13T15:57:45;12.80;99.90
10722;DHT22;5412;59.450;18.124;2022-10-13T16:00:12;12.70;99.90
10722;DHT22;5412;59.450;18.124;2022-10-13T16:02:39;12.70;99.90
10722;DHT22;5412;59.450;18.124;2022-10-13T16:05:07;12.70;99.90
10722;DHT22;5412;59.450;18.124;2022-10-13T16:07:33;12.70;99.90
10722;DHT22;5412;59.450;18.124;2022-10-13T16:10:00;12.70;99.90
10722;DHT22;5412;59.450;18.124;2022-10-13T16:12:29;12.70;99.90
10722;DHT22;5412;59.450;18.124;2022-10-13T16:14:55;12.60;99.90
10722;DHT22;5412;59.450;18.124;2022-10-13T16:17:21;12.60;99.90
10722;DHT22;5412;59.450;18.124;2022-10-13T16:19:47;12.50;99.90
10722;DHT22;5412;59.450;18.124;2022-10-13T16:22:13;12.60;99.90
10722;DHT22;5412;59.450;18.124;2022-10-13T16:24:39;12.50;99.90
10722;DHT22;5412;59.450;18.124;2022-10-13T16:27:05;12.60;99.90
10722;DHT22;5412;59.450;18.124;2022-10-13T16:29:30;12.60;99.90
10722;DHT22;5412;59.450;18.124;2022-10-13T16:31:56;12.60;99.90
10722;DHT22;5412;59.450;18.124;2022-10-13T16:34:22;12.60;99.90
10722;DHT22;5412;59.450;18.124;2022-10-13T16:36:48;12.60;99.90
10722;DHT22;5412;59.450;18.124;2022-10-13T16:39:14;12.60;99.90
10722;DHT22;5412;59.450;18.124;2022-10-13T16:41:39;12.50;99.90
10722;DHT22;5412;59.450;18.124;2022-10-13T16:44:05;12.50;99.90
10722;DHT22;5412;59.450;18.124;2022-10-13T16:46:31;12.50;99.90
10722;DHT22;5412;59.450;18.124;2022-10-13T16:48:59;12.50;99.90
10722;DHT22;5412;59.450;18.124;2022-10-13T16:51:26;12.50;99.90
10722;DHT22;5412;59.450;18.124;2022-10-13T16:53:54;12.50;99.90
10722;DHT22;5412;59.450;18.124;2022-10-13T16:56:21;12.50;99.90
10722;DHT22;5412;59.450;18.124;2022-10-13T16:58:53;12.50;99.90
10722;DHT22;5412;59.450;18.124;2022-10-13T17:01:19;12.50;99.90
10722;DHT22;5412;59.450;18.124;2022-10-13T17:03:46;12.50;99.90
10722;DHT22;5412;59.450;18.124;2022-10-13T17:06:13;12.40;99.90
10722;DHT22;5412;59.450;18.124;2022-10-13T17:08:40;12.40;99.90
10722;DHT22;5412;59.450;18.124;2022-10-13T17:11:07;12.50;99.90
10722;DHT22;5412;59.450;18.124;2022-10-13T17:13:34;12.50;99.90
10722;DHT22;5412;59.450;18.124;2022-10-13T17:16:01;12.50;99.90
10722;DHT22;5412;59.450;18.124;2022-10-13T17:18:27;12.50;99.90
10722;DHT22;5412;59.450;18.124;2022-10-13T17:20:55;12.50;99.90
10722;DHT22;5412;59.450;18.124;2022-10-13T17:23:22;12.50;99.90
10722;DHT22;5412;59.450;18.124;2022-10-13T17:25:49;12.60;99.90
10722;DHT22;5412;59.450;18.124;2022-10-13T17:28:16;12.50;99.90
10722;DHT22;5412;59.450;18.124;2022-10-13T17:30:42;13.00;99.90
10722;DHT22;5412;59.450;18.124;2022-10-13T17:33:09;12.60;99.90
10722;DHT22;5412;59.450;18.124;2022-10-13T17:35:37;12.50;99.90